sensor_id;sensor_type;location;lat;lon;timestamp;P1;durP1;ratioP1;P2;durP2;ratioP2
58896;SDS011;44677;52.378;10.400;2023-03-15T00:00:19;7.80;;;2.00;;
58896;SDS011;44677;52.378;10.400;2023-03-15T00:02:45;7.30;;;2.00;;
58896;SDS011;44677;52.378;10.400;2023-03-15T00:05:10;9.80;;;2.40;;
58896;SDS011;44677;52.378;10.400;2023-03-15T00:07:39;6.00;;;1.80;;
58896;SDS011;44677;52.378;10.400;2023-03-15T00:10:05;4.50;;;1.40;;
58896;SDS011;44677;52.378;10.400;2023-03-15T00:12:31;5.90;;;1.70;;
58896;SDS011;44677;52.378;10.400;2023-03-15T00:14:58;7.60;;;2.10;;
58896;SDS011;44677;52.378;10.400;2023-03-15T00:17:24;6.10;;;1.90;;
58896;SDS011;44677;52.378;10.400;2023-03-15T00:19:50;8.90;;;2.00;;
58896;SDS011;44677;52.378;10.400;2023-03-15T00:22:15;9.20;;;2.00;;
58896;SDS011;44677;52.378;10.400;2023-03-15T00:24:41;6.60;;;2.40;;
58896;SDS011;44677;52.378;10.400;2023-03-15T00:27:06;6.80;;;2.20;;
58896;SDS011;44677;52.378;10.400;2023-03-15T00:29:32;9.60;;;2.10;;
58896;SDS011;44677;52.378;10.400;2023-03-15T00:31:57;9.00;;;1.80;;
58896;SDS011;44677;52.378;10.400;2023-03-15T00:34:23;10.30;;;2.80;;
58896;SDS011;44677;52.378;10.400;2023-03-15T00:36:51;5.10;;;2.00;;
58896;SDS011;44677;52.378;10.400;2023-03-15T00:39:21;7.20;;;2.40;;
58896;SDS011;44677;52.378;10.400;2023-03-15T00:41:50;3.50;;;1.80;;
58896;SDS011;44677;52.378;10.400;2023-03-15T00:44:16;9.10;;;2.10;;
58896;SDS011;44677;52.378;10.400;2023-03-15T00:46:41;8.20;;;2.10;;
58896;SDS011;44677;52.378;10.400;2023-03-15T00:49:07;9.80;;;2.20;;
58896;SDS011;44677;52.378;10.400;2023-03-15T00:51:32;13.40;;;2.20;;
58896;SDS011;44677;52.378;10.400;2023-03-15T00:53:58;9.70;;;2.30;;
58896;SDS011;44677;52.378;10.400;2023-03-15T00:56:24;7.90;;;2.10;;
58896;SDS011;44677;52.378;10.400;2023-03-15T00:58:51;6.00;;;2.20;;
58896;SDS011;44677;52.378;10.400;2023-03-15T01:01:21;7.60;;;1.90;;
58896;SDS011;44677;52.378;10.400;2023-03-15T01:03:47;4.00;;;2.00;;
58896;SDS011;44677;52.378;10.400;2023-03-15T01:06:14;11.40;;;2.50;;
58896;SDS011;44677;52.378;10.400;2023-03-15T01:08:42;5.00;;;1.80;;
58896;SDS011;44677;52.378;10.400;2023-03-15T01:11:09;10.20;;;2.30;;
58896;SDS011;44677;52.378;10.400;2023-03-15T01:13:36;8.20;;;2.20;;
58896;SDS011;44677;52.378;10.400;2023-03-15T01:16:02;4.80;;;1.90;;
58896;SDS011;44677;52.378;10.400;2023-03-15T01:18:28;7.70;;;2.10;;
58896;SDS011;44677;52.378;10.400;2023-03-15T01:20:55;6.30;;;2.20;;
58896;SDS011;44677;52.378;10.400;2023-03-15T01:23:21;5.50;;;1.80;;
58896;SDS011;44677;52.378;10.400;2023-03-15T01:25:46;8.10;;;1.70;;
58896;SDS011;44677;52.378;10.400;2023-03-15T01:28:12;8.90;;;1.70;;
58896;SDS011;44677;52.378;10.400;2023-03-15T01:30:38;2.80;;;1.40;;
58896;SDS011;44677;52.378;10.400;2023-03-15T01:33:03;6.70;;;2.00;;
58896;SDS011;44677;52.378;10.400;2023-03-15T01:35:29;9.00;;;2.40;;
58896;SDS011;44677;52.378;10.400;2023-03-15T01:37:54;7.30;;;2.10;;
58896;SDS011;44677;52.378;10.400;2023-03-15T01:40:20;6.30;;;2.20;;
58896;SDS011;44677;52.378;10.400;2023-03-15T01:42:53;7.10;;;2.10;;
58896;SDS011;44677;52.378;10.400;2023-03-15T01:45:58;6.60;;;1.90;;
58896;SDS011;44677;52.378;10.400;2023-03-15T01:51:07;6.50;;;1.80;;
58896;SDS011;44677;52.378;10.400;2023-03-15T01:53:36;11.00;;;2.00;;
58896;SDS011;44677;52.378;10.400;2023-03-15T01:56:02;6.30;;;1.50;;
58896;SDS011;44677;52.378;10.400;2023-03-15T01:58:33;11.40;;;2.60;;
58896;SDS011;44677;52.378;10.400;2023-03-15T02:00:59;8.80;;;2.10;;
58896;SDS011;44677;52.378;10.400;2023-03-15T02:05:56;6.20;;;1.80;;
58896;SDS011;44677;52.378;10.400;2023-03-15T02:08:38;3.80;;;1.70;;
58896;SDS011;44677;52.378;10.400;2023-03-15T02:11:06;4.60;;;1.60;;
58896;SDS011;44677;52.378;10.400;2023-03-15T02:13:32;8.60;;;1.90;;
58896;SDS011;44677;52.378;10.400;2023-03-15T02:16:03;8.90;;;1.80;;
58896;SDS011;44677;52.378;10.400;2023-03-15T02:18:35;6.70;;;2.40;;
58896;SDS011;44677;52.378;10.400;2023-03-15T02:24:16;11.80;;;2.00;;
58896;SDS011;44677;52.378;10.400;2023-03-15T02:26:50;4.30;;;1.50;;
58896;SDS011;44677;52.378;10.400;2023-03-15T02:29:18;12.60;;;2.10;;
58896;SDS011;44677;52.378;10.400;2023-03-15T02:31:47;6.30;;;1.80;;
58896;SDS011;44677;52.378;10.400;2023-03-15T02:34:12;7.10;;;2.00;;
58896;SDS011;44677;52.378;10.400;2023-03-15T02:36:39;7.50;;;2.40;;
58896;SDS011;44677;52.378;10.400;2023-03-15T02:39:18;6.10;;;2.00;;
58896;SDS011;44677;52.378;10.400;2023-03-15T02:41:48;7.10;;;2.10;;
58896;SDS011;44677;52.378;10.400;2023-03-15T02:44:22;5.90;;;1.70;;
58896;SDS011;44677;52.378;10.400;2023-03-15T02:47:06;5.90;;;2.20;;
58896;SDS011;44677;52.378;10.400;2023-03-15T02:49:36;6.70;;;1.90;;
58896;SDS011;44677;52.378;10.400;2023-03-15T02:52:04;4.30;;;1.90;;
58896;SDS011;44677;52.378;10.400;2023-03-15T02:54:31;5.10;;;1.80;;
58896;SDS011;44677;52.378;10.400;2023-03-15T02:57:01;4.30;;;1.60;;
58896;SDS011;44677;52.378;10.400;2023-03-15T02:59:27;5.50;;;1.70;;
58896;SDS011;44677;52.378;10.400;2023-03-15T03:01:52;7.20;;;2.10;;
58896;SDS011;44677;52.378;10.400;2023-03-15T03:04:18;8.30;;;2.40;;
58896;SDS011;44677;52.378;10.400;2023-03-15T03:06:43;7.40;;;2.00;;
58896;SDS011;44677;52.378;10.400;2023-03-15T03:09:10;10.70;;;2.60;;
58896;SDS011;44677;52.378;10.400;2023-03-15T03:11:35;8.20;;;1.90;;
58896;SDS011;44677;52.378;10.400;2023-03-15T03:14:01;7.10;;;2.10;;
58896;SDS011;44677;52.378;10.400;2023-03-15T03:16:27;5.20;;;2.00;;
58896;SDS011;44677;52.378;10.400;2023-03-15T03:18:52;7.50;;;2.10;;
58896;SDS011;44677;52.378;10.400;2023-03-15T03:21:17;3.90;;;2.00;;
58896;SDS011;44677;52.378;10.400;2023-03-15T03:23:43;7.00;;;3.00;;
58896;SDS011;44677;52.378;10.400;2023-03-15T03:28:41;5.90;;;1.80;;
58896;SDS011;44677;52.378;10.400;2023-03-15T03:31:14;7.60;;;2.20;;
58896;SDS011;44677;52.378;10.400;2023-03-15T03:33:41;5.60;;;2.10;;
58896;SDS011;44677;52.378;10.400;2023-03-15T03:36:07;7.70;;;2.00;;
58896;SDS011;44677;52.378;10.400;2023-03-15T03:38:32;4.90;;;1.90;;
58896;SDS011;44677;52.378;10.400;2023-03-15T03:40:59;8.40;;;2.20;;
58896;SDS011;44677;52.378;10.400;2023-03-15T03:43:26;6.00;;;2.10;;
58896;SDS011;44677;52.378;10.400;2023-03-15T03:45:51;7.40;;;1.80;;
58896;SDS011;44677;52.378;10.400;2023-03-15T03:48:17;6.50;;;2.20;;
58896;SDS011;44677;52.378;10.400;2023-03-15T03:50:42;8.70;;;1.90;;
58896;SDS011;44677;52.378;10.400;2023-03-15T03:53:08;7.50;;;2.10;;
58896;SDS011;44677;52.378;10.400;2023-03-15T03:55:33;9.30;;;2.20;;
58896;SDS011;44677;52.378;10.400;2023-03-15T03:57:59;7.10;;;2.20;;
58896;SDS011;44677;52.378;10.400;2023-03-15T04:00:38;8.60;;;1.90;;
58896;SDS011;44677;52.378;10.400;2023-03-15T04:03:04;6.80;;;1.80;;
58896;SDS011;44677;52.378;10.400;2023-03-15T04:05:31;3.10;;;1.80;;
58896;SDS011;44677;52.378;10.400;2023-03-15T04:07:57;7.10;;;2.10;;
58896;SDS011;44677;52.378;10.400;2023-03-15T04:10:24;11.00;;;2.30;;
58896;SDS011;44677;52.378;10.400;2023-03-15T04:12:53;7.80;;;2.10;;
58896;SDS011;44677;52.378;10.400;2023-03-15T04:15:19;6.50;;;2.40;;
58896;SDS011;44677;52.378;10.400;2023-03-15T04:17:47;3.00;;;2.00;;
58896;SDS011;44677;52.378;10.400;2023-03-15T04:20:13;9.10;;;2.50;;
58896;SDS011;44677;52.378;10.400;2023-03-15T04:22:42;9.80;;;2.50;;
58896;SDS011;44677;52.378;10.400;2023-03-15T04:25:21;7.80;;;2.40;;
58896;SDS011;44677;52.378;10.400;2023-03-15T04:28:23;10.80;;;2.70;;
58896;SDS011;44677;52.378;10.400;2023-03-15T04:31:09;7.40;;;2.50;;
58896;SDS011;44677;52.378;10.400;2023-03-15T04:33:38;12.20;;;3.10;;
58896;SDS011;44677;52.378;10.400;2023-03-15T04:36:16;7.40;;;2.20;;
58896;SDS011;44677;52.378;10.400;2023-03-15T04:39:04;9.10;;;2.60;;
58896;SDS011;44677;52.378;10.400;2023-03-15T04:41:50;9.80;;;2.60;;
58896;SDS011;44677;52.378;10.400;2023-03-15T04:44:34;8.60;;;2.80;;
58896;SDS011;44677;52.378;10.400;2023-03-15T04:47:18;6.50;;;2.70;;
58896;SDS011;44677;52.378;10.400;2023-03-15T04:50:03;7.10;;;3.20;;
58896;SDS011;44677;52.378;10.400;2023-03-15T04:52:52;7.90;;;2.70;;
58896;SDS011;44677;52.378;10.400;2023-03-15T04:55:46;8.00;;;2.80;;
58896;SDS011;44677;52.378;10.400;2023-03-15T04:58:27;4.70;;;2.80;;
58896;SDS011;44677;52.378;10.400;2023-03-15T05:01:01;10.10;;;3.40;;
58896;SDS011;44677;52.378;10.400;2023-03-15T05:04:02;7.90;;;3.00;;
58896;SDS011;44677;52.378;10.400;2023-03-15T05:06:54;7.10;;;3.20;;
58896;SDS011;44677;52.378;10.400;2023-03-15T05:09:40;9.20;;;3.00;;
58896;SDS011;44677;52.378;10.400;2023-03-15T05:12:11;9.00;;;3.30;;
58896;SDS011;44677;52.378;10.400;2023-03-15T05:15:05;7.90;;;3.50;;
58896;SDS011;44677;52.378;10.400;2023-03-15T05:17:53;7.10;;;3.80;;
58896;SDS011;44677;52.378;10.400;2023-03-15T05:20:38;7.70;;;3.40;;
58896;SDS011;44677;52.378;10.400;2023-03-15T05:23:23;6.40;;;3.50;;
58896;SDS011;44677;52.378;10.400;2023-03-15T05:26:09;7.40;;;3.50;;
58896;SDS011;44677;52.378;10.400;2023-03-15T05:29:06;11.20;;;3.60;;
58896;SDS011;44677;52.378;10.400;2023-03-15T05:31:41;8.50;;;4.70;;
58896;SDS011;44677;52.378;10.400;2023-03-15T05:34:23;9.70;;;4.40;;
58896;SDS011;44677;52.378;10.400;2023-03-15T05:36:59;9.80;;;3.70;;
58896;SDS011;44677;52.378;10.400;2023-03-15T05:39:25;10.60;;;4.10;;
58896;SDS011;44677;52.378;10.400;2023-03-15T05:42:09;6.40;;;4.10;;
58896;SDS011;44677;52.378;10.400;2023-03-15T05:45:13;6.60;;;4.20;;
58896;SDS011;44677;52.378;10.400;2023-03-15T05:48:05;6.00;;;4.20;;
58896;SDS011;44677;52.378;10.400;2023-03-15T05:50:51;5.80;;;3.90;;
58896;SDS011;44677;52.378;10.400;2023-03-15T05:53:37;11.60;;;4.80;;
58896;SDS011;44677;52.378;10.400;2023-03-15T05:56:21;7.80;;;4.40;;
58896;SDS011;44677;52.378;10.400;2023-03-15T05:59:06;8.70;;;4.60;;
58896;SDS011;44677;52.378;10.400;2023-03-15T06:01:50;11.00;;;4.90;;
58896;SDS011;44677;52.378;10.400;2023-03-15T06:04:19;7.40;;;4.40;;
58896;SDS011;44677;52.378;10.400;2023-03-15T06:06:45;10.90;;;4.70;;
58896;SDS011;44677;52.378;10.400;2023-03-15T06:09:10;8.70;;;4.70;;
58896;SDS011;44677;52.378;10.400;2023-03-15T06:11:36;9.90;;;5.00;;
58896;SDS011;44677;52.378;10.400;2023-03-15T06:14:02;7.00;;;4.60;;
58896;SDS011;44677;52.378;10.400;2023-03-15T06:16:35;13.70;;;4.90;;
58896;SDS011;44677;52.378;10.400;2023-03-15T06:19:01;8.60;;;4.60;;
58896;SDS011;44677;52.378;10.400;2023-03-15T06:21:28;5.80;;;4.20;;
58896;SDS011;44677;52.378;10.400;2023-03-15T06:23:54;10.20;;;4.60;;
58896;SDS011;44677;52.378;10.400;2023-03-15T06:26:19;9.10;;;4.40;;
58896;SDS011;44677;52.378;10.400;2023-03-15T06:28:46;10.60;;;4.70;;
58896;SDS011;44677;52.378;10.400;2023-03-15T06:31:12;9.30;;;4.30;;
58896;SDS011;44677;52.378;10.400;2023-03-15T06:33:46;8.90;;;4.30;;
58896;SDS011;44677;52.378;10.400;2023-03-15T06:36:12;8.40;;;4.40;;
58896;SDS011;44677;52.378;10.400;2023-03-15T06:38:38;7.70;;;4.60;;
58896;SDS011;44677;52.378;10.400;2023-03-15T06:41:04;8.90;;;4.80;;
58896;SDS011;44677;52.378;10.400;2023-03-15T06:43:31;6.80;;;4.40;;
58896;SDS011;44677;52.378;10.400;2023-03-15T06:45:57;5.90;;;4.50;;
58896;SDS011;44677;52.378;10.400;2023-03-15T06:50:49;8.20;;;4.00;;
58896;SDS011;44677;52.378;10.400;2023-03-15T06:53:15;6.20;;;4.00;;
58896;SDS011;44677;52.378;10.400;2023-03-15T06:55:40;9.20;;;4.90;;
58896;SDS011;44677;52.378;10.400;2023-03-15T06:58:06;7.10;;;4.60;;
58896;SDS011;44677;52.378;10.400;2023-03-15T07:00:31;7.00;;;5.30;;
58896;SDS011;44677;52.378;10.400;2023-03-15T07:02:57;7.40;;;4.50;;
58896;SDS011;44677;52.378;10.400;2023-03-15T07:05:22;9.50;;;4.90;;
58896;SDS011;44677;52.378;10.400;2023-03-15T07:07:47;7.70;;;4.90;;
58896;SDS011;44677;52.378;10.400;2023-03-15T07:10:13;5.30;;;4.40;;
58896;SDS011;44677;52.378;10.400;2023-03-15T07:12:38;6.80;;;4.40;;
58896;SDS011;44677;52.378;10.400;2023-03-15T07:15:03;7.30;;;4.50;;
58896;SDS011;44677;52.378;10.400;2023-03-15T07:17:29;7.30;;;4.30;;
58896;SDS011;44677;52.378;10.400;2023-03-15T07:19:54;4.80;;;3.70;;
58896;SDS011;44677;52.378;10.400;2023-03-15T07:22:20;5.00;;;3.00;;
58896;SDS011;44677;52.378;10.400;2023-03-15T07:24:47;6.80;;;3.70;;
58896;SDS011;44677;52.378;10.400;2023-03-15T07:27:13;8.60;;;3.90;;
58896;SDS011;44677;52.378;10.400;2023-03-15T07:29:38;5.30;;;3.80;;
58896;SDS011;44677;52.378;10.400;2023-03-15T07:32:04;6.20;;;3.90;;
58896;SDS011;44677;52.378;10.400;2023-03-15T07:34:31;5.80;;;4.00;;
58896;SDS011;44677;52.378;10.400;2023-03-15T07:36:56;6.50;;;4.10;;
58896;SDS011;44677;52.378;10.400;2023-03-15T07:39:21;6.90;;;3.80;;
58896;SDS011;44677;52.378;10.400;2023-03-15T07:41:47;7.30;;;4.00;;
58896;SDS011;44677;52.378;10.400;2023-03-15T07:44:19;6.10;;;4.10;;
58896;SDS011;44677;52.378;10.400;2023-03-15T07:46:45;4.20;;;3.40;;
58896;SDS011;44677;52.378;10.400;2023-03-15T07:49:11;5.80;;;3.60;;
58896;SDS011;44677;52.378;10.400;2023-03-15T07:51:36;5.10;;;3.70;;
58896;SDS011;44677;52.378;10.400;2023-03-15T07:54:02;4.90;;;3.30;;
58896;SDS011;44677;52.378;10.400;2023-03-15T07:56:27;15.20;;;10.60;;
58896;SDS011;44677;52.378;10.400;2023-03-15T07:58:53;10.00;;;6.50;;
58896;SDS011;44677;52.378;10.400;2023-03-15T08:01:18;7.00;;;4.60;;
58896;SDS011;44677;52.378;10.400;2023-03-15T08:03:44;5.60;;;5.10;;
58896;SDS011;44677;52.378;10.400;2023-03-15T08:06:09;6.80;;;4.60;;
58896;SDS011;44677;52.378;10.400;2023-03-15T08:08:34;8.90;;;4.60;;
58896;SDS011;44677;52.378;10.400;2023-03-15T08:11:00;6.60;;;4.40;;
58896;SDS011;44677;52.378;10.400;2023-03-15T08:13:25;7.30;;;4.00;;
58896;SDS011;44677;52.378;10.400;2023-03-15T08:15:51;6.80;;;4.00;;
58896;SDS011;44677;52.378;10.400;2023-03-15T08:18:16;7.40;;;5.30;;
58896;SDS011;44677;52.378;10.400;2023-03-15T08:20:41;9.00;;;4.90;;
58896;SDS011;44677;52.378;10.400;2023-03-15T08:23:07;5.60;;;3.90;;
58896;SDS011;44677;52.378;10.400;2023-03-15T08:25:33;9.30;;;3.70;;
58896;SDS011;44677;52.378;10.400;2023-03-15T08:28:00;4.40;;;3.90;;
58896;SDS011;44677;52.378;10.400;2023-03-15T08:30:26;5.90;;;3.80;;
58896;SDS011;44677;52.378;10.400;2023-03-15T08:32:51;6.40;;;3.40;;
58896;SDS011;44677;52.378;10.400;2023-03-15T08:35:17;4.80;;;3.60;;
58896;SDS011;44677;52.378;10.400;2023-03-15T08:37:43;4.00;;;3.10;;
58896;SDS011;44677;52.378;10.400;2023-03-15T08:40:15;9.70;;;3.80;;
58896;SDS011;44677;52.378;10.400;2023-03-15T08:42:45;6.00;;;3.20;;
58896;SDS011;44677;52.378;10.400;2023-03-15T08:45:13;5.70;;;3.70;;
58896;SDS011;44677;52.378;10.400;2023-03-15T08:47:40;5.60;;;3.90;;
58896;SDS011;44677;52.378;10.400;2023-03-15T08:50:10;9.10;;;5.00;;
58896;SDS011;44677;52.378;10.400;2023-03-15T08:52:37;4.70;;;3.40;;
58896;SDS011;44677;52.378;10.400;2023-03-15T08:55:03;5.30;;;3.00;;
58896;SDS011;44677;52.378;10.400;2023-03-15T08:57:29;6.70;;;3.30;;
58896;SDS011;44677;52.378;10.400;2023-03-15T08:59:57;3.40;;;3.10;;
58896;SDS011;44677;52.378;10.400;2023-03-15T09:04:49;6.10;;;3.70;;
58896;SDS011;44677;52.378;10.400;2023-03-15T09:07:15;5.80;;;3.70;;
58896;SDS011;44677;52.378;10.400;2023-03-15T09:09:40;8.20;;;3.40;;
58896;SDS011;44677;52.378;10.400;2023-03-15T09:12:06;5.40;;;3.40;;
58896;SDS011;44677;52.378;10.400;2023-03-15T09:14:31;4.70;;;3.30;;
58896;SDS011;44677;52.378;10.400;2023-03-15T09:16:57;5.00;;;2.70;;
58896;SDS011;44677;52.378;10.400;2023-03-15T09:19:22;6.00;;;3.10;;
58896;SDS011;44677;52.378;10.400;2023-03-15T09:21:47;6.50;;;2.70;;
58896;SDS011;44677;52.378;10.400;2023-03-15T09:24:13;3.30;;;2.80;;
58896;SDS011;44677;52.378;10.400;2023-03-15T09:26:38;5.70;;;2.80;;
58896;SDS011;44677;52.378;10.400;2023-03-15T09:29:05;4.90;;;2.30;;
58896;SDS011;44677;52.378;10.400;2023-03-15T09:31:31;4.80;;;2.60;;
58896;SDS011;44677;52.378;10.400;2023-03-15T09:33:57;6.10;;;2.70;;
58896;SDS011;44677;52.378;10.400;2023-03-15T09:36:23;4.90;;;2.50;;
58896;SDS011;44677;52.378;10.400;2023-03-15T09:38:49;7.00;;;2.30;;
58896;SDS011;44677;52.378;10.400;2023-03-15T09:41:56;5.20;;;2.40;;
58896;SDS011;44677;52.378;10.400;2023-03-15T09:49:40;6.00;;;2.90;;
58896;SDS011;44677;52.378;10.400;2023-03-15T09:55:17;6.40;;;2.70;;
58896;SDS011;44677;52.378;10.400;2023-03-15T09:57:55;6.30;;;2.40;;
58896;SDS011;44677;52.378;10.400;2023-03-15T10:01:05;5.60;;;2.50;;
58896;SDS011;44677;52.378;10.400;2023-03-15T10:03:20;5.30;;;1.80;;
58896;SDS011;44677;52.378;10.400;2023-03-15T10:06:33;5.90;;;1.80;;
58896;SDS011;44677;52.378;10.400;2023-03-15T10:08:59;6.80;;;2.40;;
58896;SDS011;44677;52.378;10.400;2023-03-15T10:11:33;2.80;;;1.80;;
58896;SDS011;44677;52.378;10.400;2023-03-15T10:17:13;6.70;;;1.70;;
58896;SDS011;44677;52.378;10.400;2023-03-15T10:19:50;8.30;;;1.80;;
58896;SDS011;44677;52.378;10.400;2023-03-15T10:22:28;5.00;;;1.90;;
58896;SDS011;44677;52.378;10.400;2023-03-15T10:24:58;8.00;;;1.60;;
58896;SDS011;44677;52.378;10.400;2023-03-15T10:30:17;4.20;;;1.70;;
58896;SDS011;44677;52.378;10.400;2023-03-15T10:32:43;6.30;;;2.20;;
58896;SDS011;44677;52.378;10.400;2023-03-15T10:35:15;4.80;;;1.50;;
58896;SDS011;44677;52.378;10.400;2023-03-15T10:37:42;3.10;;;1.50;;
58896;SDS011;44677;52.378;10.400;2023-03-15T10:40:08;7.50;;;2.50;;
58896;SDS011;44677;52.378;10.400;2023-03-15T10:42:40;7.20;;;2.20;;
58896;SDS011;44677;52.378;10.400;2023-03-15T10:45:10;6.10;;;2.10;;
58896;SDS011;44677;52.378;10.400;2023-03-15T10:50:24;4.20;;;1.90;;
58896;SDS011;44677;52.378;10.400;2023-03-15T10:52:55;5.60;;;1.70;;
58896;SDS011;44677;52.378;10.400;2023-03-15T10:55:32;5.50;;;1.60;;
58896;SDS011;44677;52.378;10.400;2023-03-15T10:58:18;5.50;;;1.80;;
58896;SDS011;44677;52.378;10.400;2023-03-15T11:00:49;5.60;;;1.80;;
58896;SDS011;44677;52.378;10.400;2023-03-15T11:03:20;6.70;;;2.30;;
58896;SDS011;44677;52.378;10.400;2023-03-15T11:05:49;5.70;;;1.80;;
58896;SDS011;44677;52.378;10.400;2023-03-15T11:08:17;6.70;;;1.90;;
58896;SDS011;44677;52.378;10.400;2023-03-15T11:10:45;6.70;;;1.80;;
58896;SDS011;44677;52.378;10.400;2023-03-15T11:13:20;5.30;;;1.50;;
58896;SDS011;44677;52.378;10.400;2023-03-15T11:16:33;6.00;;;1.20;;
58896;SDS011;44677;52.378;10.400;2023-03-15T11:21:15;4.20;;;1.10;;
58896;SDS011;44677;52.378;10.400;2023-03-15T11:23:42;3.90;;;1.30;;
58896;SDS011;44677;52.378;10.400;2023-03-15T11:26:21;4.30;;;1.10;;
58896;SDS011;44677;52.378;10.400;2023-03-15T11:28:49;5.10;;;1.80;;
58896;SDS011;44677;52.378;10.400;2023-03-15T11:31:18;5.20;;;0.90;;
58896;SDS011;44677;52.378;10.400;2023-03-15T11:33:56;4.20;;;1.00;;
58896;SDS011;44677;52.378;10.400;2023-03-15T11:36:25;3.70;;;1.20;;
58896;SDS011;44677;52.378;10.400;2023-03-15T11:38:53;3.10;;;0.90;;
58896;SDS011;44677;52.378;10.400;2023-03-15T11:44:01;3.20;;;1.10;;
58896;SDS011;44677;52.378;10.400;2023-03-15T11:46:42;2.60;;;0.90;;
58896;SDS011;44677;52.378;10.400;2023-03-15T11:49:16;2.80;;;1.00;;
58896;SDS011;44677;52.378;10.400;2023-03-15T11:51:48;4.20;;;1.00;;
58896;SDS011;44677;52.378;10.400;2023-03-15T11:54:14;3.70;;;0.90;;
58896;SDS011;44677;52.378;10.400;2023-03-15T11:56:54;3.20;;;1.10;;
58896;SDS011;44677;52.378;10.400;2023-03-15T12:01:55;4.90;;;1.20;;
58896;SDS011;44677;52.378;10.400;2023-03-15T12:06:58;4.40;;;1.50;;
58896;SDS011;44677;52.378;10.400;2023-03-15T12:11:59;3.40;;;1.40;;
58896;SDS011;44677;52.378;10.400;2023-03-15T12:20:04;7.80;;;2.50;;
58896;SDS011;44677;52.378;10.400;2023-03-15T12:22:40;5.30;;;1.70;;
58896;SDS011;44677;52.378;10.400;2023-03-15T12:27:49;2.30;;;1.10;;
58896;SDS011;44677;52.378;10.400;2023-03-15T12:30:22;3.20;;;1.00;;
58896;SDS011;44677;52.378;10.400;2023-03-15T12:32:57;4.30;;;2.10;;
58896;SDS011;44677;52.378;10.400;2023-03-15T12:35:26;5.30;;;2.20;;
58896;SDS011;44677;52.378;10.400;2023-03-15T12:37:53;2.80;;;2.10;;
58896;SDS011;44677;52.378;10.400;2023-03-15T12:53:26;6.00;;;1.90;;
58896;SDS011;44677;52.378;10.400;2023-03-15T12:56:11;13.70;;;7.40;;
58896;SDS011;44677;52.378;10.400;2023-03-15T12:59:14;7.80;;;1.50;;
58896;SDS011;44677;52.378;10.400;2023-03-15T13:01:46;4.20;;;1.30;;
58896;SDS011;44677;52.378;10.400;2023-03-15T13:04:12;3.20;;;1.10;;
58896;SDS011;44677;52.378;10.400;2023-03-15T13:15:01;4.60;;;1.50;;
58896;SDS011;44677;52.378;10.400;2023-03-15T13:23:19;3.00;;;1.40;;
58896;SDS011;44677;52.378;10.400;2023-03-15T13:25:49;4.40;;;1.30;;
58896;SDS011;44677;52.378;10.400;2023-03-15T13:30:54;2.00;;;1.30;;
58896;SDS011;44677;52.378;10.400;2023-03-15T13:33:27;2.20;;;1.20;;
58896;SDS011;44677;52.378;10.400;2023-03-15T13:38:38;6.10;;;2.00;;
58896;SDS011;44677;52.378;10.400;2023-03-15T13:41:14;3.50;;;2.00;;
58896;SDS011;44677;52.378;10.400;2023-03-15T13:43:43;4.60;;;2.00;;
58896;SDS011;44677;52.378;10.400;2023-03-15T13:46:09;3.20;;;1.60;;
58896;SDS011;44677;52.378;10.400;2023-03-15T13:48:35;6.90;;;4.40;;
58896;SDS011;44677;52.378;10.400;2023-03-15T13:51:03;2.80;;;1.60;;
58896;SDS011;44677;52.378;10.400;2023-03-15T13:53:31;4.20;;;1.10;;
58896;SDS011;44677;52.378;10.400;2023-03-15T13:55:58;4.20;;;1.20;;
58896;SDS011;44677;52.378;10.400;2023-03-15T13:58:24;4.10;;;1.00;;
58896;SDS011;44677;52.378;10.400;2023-03-15T14:00:54;2.50;;;1.00;;
58896;SDS011;44677;52.378;10.400;2023-03-15T14:03:21;2.30;;;1.20;;
58896;SDS011;44677;52.378;10.400;2023-03-15T14:05:49;6.20;;;1.70;;
58896;SDS011;44677;52.378;10.400;2023-03-15T14:11:11;4.90;;;1.50;;
58896;SDS011;44677;52.378;10.400;2023-03-15T14:13:57;4.10;;;2.10;;
58896;SDS011;44677;52.378;10.400;2023-03-15T14:16:38;4.60;;;2.70;;
58896;SDS011;44677;52.378;10.400;2023-03-15T14:21:45;2.40;;;1.10;;
58896;SDS011;44677;52.378;10.400;2023-03-15T14:26:56;6.00;;;3.40;;
58896;SDS011;44677;52.378;10.400;2023-03-15T14:29:25;3.20;;;1.70;;
58896;SDS011;44677;52.378;10.400;2023-03-15T14:31:52;3.40;;;1.10;;
58896;SDS011;44677;52.378;10.400;2023-03-15T14:34:29;2.30;;;1.00;;
58896;SDS011;44677;52.378;10.400;2023-03-15T14:37:03;4.70;;;1.40;;
58896;SDS011;44677;52.378;10.400;2023-03-15T14:39:37;5.20;;;1.50;;
58896;SDS011;44677;52.378;10.400;2023-03-15T14:42:09;3.00;;;2.00;;
58896;SDS011;44677;52.378;10.400;2023-03-15T14:44:36;2.60;;;1.20;;
58896;SDS011;44677;52.378;10.400;2023-03-15T14:47:05;3.20;;;1.00;;
58896;SDS011;44677;52.378;10.400;2023-03-15T14:49:40;3.10;;;1.10;;
58896;SDS011;44677;52.378;10.400;2023-03-15T14:52:06;5.50;;;1.60;;
58896;SDS011;44677;52.378;10.400;2023-03-15T14:54:31;2.60;;;1.20;;
58896;SDS011;44677;52.378;10.400;2023-03-15T14:56:57;4.90;;;1.00;;
58896;SDS011;44677;52.378;10.400;2023-03-15T14:59:23;3.90;;;0.90;;
58896;SDS011;44677;52.378;10.400;2023-03-15T15:01:50;4.40;;;1.10;;
58896;SDS011;44677;52.378;10.400;2023-03-15T15:04:17;3.50;;;1.00;;
58896;SDS011;44677;52.378;10.400;2023-03-15T15:06:44;3.00;;;1.00;;
58896;SDS011;44677;52.378;10.400;2023-03-15T15:09:20;5.90;;;1.40;;
58896;SDS011;44677;52.378;10.400;2023-03-15T15:11:47;4.30;;;1.20;;
58896;SDS011;44677;52.378;10.400;2023-03-15T15:14:13;2.50;;;0.80;;
58896;SDS011;44677;52.378;10.400;2023-03-15T15:16:39;3.70;;;1.30;;
58896;SDS011;44677;52.378;10.400;2023-03-15T15:19:05;4.50;;;1.10;;
58896;SDS011;44677;52.378;10.400;2023-03-15T15:21:31;3.40;;;0.90;;
58896;SDS011;44677;52.378;10.400;2023-03-15T15:23:56;4.40;;;1.10;;
58896;SDS011;44677;52.378;10.400;2023-03-15T15:26:22;5.10;;;1.00;;
58896;SDS011;44677;52.378;10.400;2023-03-15T15:28:50;2.40;;;0.70;;
58896;SDS011;44677;52.378;10.400;2023-03-15T15:31:19;3.50;;;1.10;;
58896;SDS011;44677;52.378;10.400;2023-03-15T15:33:49;3.30;;;0.70;;
58896;SDS011;44677;52.378;10.400;2023-03-15T15:36:29;4.00;;;1.00;;
58896;SDS011;44677;52.378;10.400;2023-03-15T15:38:56;1.90;;;0.90;;
58896;SDS011;44677;52.378;10.400;2023-03-15T15:41:23;4.30;;;1.10;;
58896;SDS011;44677;52.378;10.400;2023-03-15T15:43:50;2.90;;;0.90;;
58896;SDS011;44677;52.378;10.400;2023-03-15T15:46:15;3.40;;;0.80;;
58896;SDS011;44677;52.378;10.400;2023-03-15T15:48:41;3.30;;;1.00;;
58896;SDS011;44677;52.378;10.400;2023-03-15T15:51:13;6.40;;;0.90;;
58896;SDS011;44677;52.378;10.400;2023-03-15T15:53:51;3.90;;;1.00;;
58896;SDS011;44677;52.378;10.400;2023-03-15T15:56:18;4.70;;;0.70;;
58896;SDS011;44677;52.378;10.400;2023-03-15T15:58:44;2.40;;;0.90;;
58896;SDS011;44677;52.378;10.400;2023-03-15T16:01:10;3.20;;;0.80;;
58896;SDS011;44677;52.378;10.400;2023-03-15T16:03:40;2.00;;;0.60;;
58896;SDS011;44677;52.378;10.400;2023-03-15T16:06:08;4.40;;;1.30;;
58896;SDS011;44677;52.378;10.400;2023-03-15T16:08:39;2.00;;;0.90;;
58896;SDS011;44677;52.378;10.400;2023-03-15T16:11:05;1.20;;;0.90;;
58896;SDS011;44677;52.378;10.400;2023-03-15T16:13:31;3.60;;;1.60;;
58896;SDS011;44677;52.378;10.400;2023-03-15T16:15:57;1.50;;;1.10;;
58896;SDS011;44677;52.378;10.400;2023-03-15T16:18:22;2.00;;;0.80;;
58896;SDS011;44677;52.378;10.400;2023-03-15T16:20:47;2.20;;;0.80;;
58896;SDS011;44677;52.378;10.400;2023-03-15T16:23:17;4.90;;;1.00;;
58896;SDS011;44677;52.378;10.400;2023-03-15T16:25:47;2.40;;;0.90;;